createdAt,value
2018-02-04T00:01:10.118Z,1.78
2018-02-04T00:03:38.384Z,1.71
2018-02-04T00:06:06.982Z,1.80
2018-02-04T00:08:34.406Z,2.01
2018-02-04T00:11:01.829Z,1.87
2018-02-04T00:13:29.390Z,1.82
2018-02-04T00:15:56.821Z,1.70
2018-02-04T00:18:24.255Z,1.85
2018-02-04T00:20:51.683Z,1.80
2018-02-04T00:23:19.249Z,1.68
2018-02-04T00:25:46.670Z,1.75
2018-02-04T00:28:14.102Z,1.87
2018-02-04T00:30:41.519Z,1.76
2018-02-04T00:33:08.949Z,1.61
2018-02-04T00:35:36.407Z,1.53
2018-02-04T00:38:03.984Z,1.43
2018-02-04T00:40:31.737Z,1.42
2018-02-04T00:43:00.687Z,1.48
2018-02-04T00:45:28.118Z,1.67
2018-02-04T00:47:55.602Z,1.83
2018-02-04T00:50:23.365Z,2.22
2018-02-04T00:52:51.442Z,2.32
2018-02-04T00:55:18.877Z,2.48
2018-02-04T00:57:46.285Z,2.27
2018-02-04T01:00:13.833Z,2.07
2018-02-04T01:02:41.579Z,1.98
2018-02-04T01:05:09.065Z,2.06
2018-02-04T01:07:36.540Z,1.91
2018-02-04T01:10:03.969Z,2.11
2018-02-04T01:12:31.717Z,2.34
2018-02-04T01:14:59.210Z,2.39
2018-02-04T01:17:27.470Z,2.30
2018-02-04T01:19:54.965Z,2.23
2018-02-04T01:22:22.381Z,2.13
2018-02-04T01:24:49.809Z,1.88
2018-02-04T01:27:17.221Z,1.79
2018-02-04T01:29:44.801Z,1.75
2018-02-04T01:32:12.218Z,1.77
2018-02-04T01:34:39.651Z,1.73
2018-02-04T01:37:07.155Z,1.73
2018-02-04T01:39:34.699Z,1.72
2018-02-04T01:42:02.117Z,1.62
2018-02-04T01:44:29.583Z,1.61
2018-02-04T01:46:57.165Z,1.55
2018-02-04T01:49:24.810Z,1.57
2018-02-04T01:51:52.517Z,1.59
2018-02-04T01:54:19.975Z,1.66
2018-02-04T01:56:47.438Z,1.52
2018-02-04T01:59:15.738Z,1.46
2018-02-04T02:01:43.410Z,1.46
2018-02-04T02:04:11.003Z,1.58
2018-02-04T02:06:38.601Z,1.61
2018-02-04T02:09:05.968Z,1.59
2018-02-04T02:11:33.417Z,1.52
2018-02-04T02:14:00.845Z,1.35
2018-02-04T02:16:28.285Z,1.33
2018-02-04T02:18:55.766Z,1.34
2018-02-04T02:21:23.200Z,1.26
2018-02-04T02:23:50.735Z,1.21
2018-02-04T02:26:18.161Z,1.20
2018-02-04T02:28:45.586Z,1.18
2018-02-04T02:31:13.017Z,1.05
2018-02-04T02:33:40.476Z,1.08
2018-02-04T02:36:07.895Z,0.94
2018-02-04T02:38:35.473Z,1.00
2018-02-04T02:41:05.755Z,1.09
2018-02-04T02:43:33.400Z,1.14
2018-02-04T02:46:00.962Z,1.13
2018-02-04T02:48:28.786Z,1.05
2018-02-04T02:50:56.386Z,0.95
2018-02-04T02:53:24.333Z,0.92
2018-02-04T02:55:51.759Z,0.96
2018-02-04T02:58:19.169Z,0.99
2018-02-04T03:00:46.671Z,1.01
2018-02-04T03:03:14.077Z,1.07
2018-02-04T03:05:41.526Z,1.19
2018-02-04T03:08:09.059Z,1.17
2018-02-04T03:10:36.482Z,1.18
2018-02-04T03:13:05.070Z,1.19
2018-02-04T03:15:32.576Z,1.18
2018-02-04T03:18:00.037Z,1.20
2018-02-04T03:20:27.461Z,1.07
2018-02-04T03:22:54.949Z,1.05
2018-02-04T03:25:22.494Z,0.94
2018-02-04T03:27:50.173Z,1.00
2018-02-04T03:30:17.930Z,0.92
2018-02-04T03:32:45.413Z,0.85
2018-02-04T03:35:12.832Z,0.80
2018-02-04T03:37:40.263Z,0.80
2018-02-04T03:40:07.767Z,0.83
2018-02-04T03:42:35.506Z,0.84
2018-02-04T03:45:03.138Z,0.89
2018-02-04T03:47:33.313Z,0.79
2018-02-04T03:50:00.732Z,0.80
2018-02-04T03:52:28.380Z,0.83
2018-02-04T03:54:55.803Z,0.90
2018-02-04T03:57:23.375Z,0.86
2018-02-04T03:59:50.829Z,0.84
2018-02-04T04:02:18.273Z,0.88
2018-02-04T04:04:45.711Z,0.84
2018-02-04T04:07:13.246Z,0.82
2018-02-04T04:09:40.662Z,0.78
2018-02-04T04:12:08.117Z,0.75
2018-02-04T04:14:35.536Z,0.79
2018-02-04T04:17:04.050Z,0.70
2018-02-04T04:19:31.709Z,0.70
2018-02-04T04:21:59.134Z,0.40
2018-02-04T04:24:26.545Z,0.41
2018-02-04T04:26:53.974Z,0.58
2018-02-04T04:29:21.608Z,0.51
2018-02-04T04:31:49.022Z,0.57
2018-02-04T04:34:16.456Z,0.47
2018-02-04T04:36:44.530Z,0.62
2018-02-04T04:39:11.963Z,0.43
2018-02-04T04:41:39.387Z,0.24
2018-02-04T04:44:07.861Z,0.29
2018-02-04T04:46:35.282Z,0.22
2018-02-04T04:49:02.749Z,0.18
2018-02-04T04:51:30.171Z,0.16
2018-02-04T04:53:57.631Z,0.20
2018-02-04T04:56:25.922Z,0.23
2018-02-04T04:58:53.360Z,0.38
2018-02-04T05:01:20.924Z,0.50
2018-02-04T05:03:48.292Z,0.37
2018-02-04T05:06:15.707Z,0.20
2018-02-04T05:08:43.135Z,0.14
2018-02-04T05:11:10.757Z,0.20
2018-02-04T05:13:39.084Z,0.24
2018-02-04T05:16:06.492Z,0.20
2018-02-04T05:18:34.140Z,0.19
2018-02-04T05:21:01.547Z,0.19
2018-02-04T05:23:28.990Z,0.23
2018-02-04T05:25:56.720Z,0.25
2018-02-04T05:28:24.142Z,0.27
2018-02-04T05:30:51.994Z,0.30
2018-02-04T05:33:20.636Z,0.33
2018-02-04T05:35:48.054Z,0.36
2018-02-04T05:38:15.488Z,0.36
2018-02-04T05:40:42.903Z,0.48
2018-02-04T05:43:10.457Z,0.47
2018-02-04T05:45:39.671Z,0.48
2018-02-04T05:48:07.103Z,0.66
2018-02-04T05:50:34.565Z,0.84
2018-02-04T05:53:01.999Z,1.01
2018-02-04T05:55:29.618Z,0.98
2018-02-04T05:57:57.062Z,1.04
2018-02-04T06:00:24.473Z,0.96
2018-02-04T06:02:52.006Z,0.87
2018-02-04T06:05:19.426Z,0.85
2018-02-04T06:07:46.837Z,0.91
2018-02-04T06:10:14.338Z,0.86
2018-02-04T06:12:41.849Z,0.84
2018-02-04T06:15:09.265Z,0.84
2018-02-04T06:17:36.687Z,0.90
2018-02-04T06:20:04.208Z,0.74
2018-02-04T06:22:31.615Z,0.84
2018-02-04T06:24:59.122Z,0.73
2018-02-04T06:27:27.114Z,0.69
2018-02-04T06:29:54.542Z,0.80
2018-02-04T06:32:22.070Z,0.91
2018-02-04T06:34:51.256Z,0.65
2018-02-04T06:37:18.833Z,0.52
2018-02-04T06:39:46.285Z,0.50
2018-02-04T06:42:13.706Z,0.54
2018-02-04T06:44:43.013Z,0.46
2018-02-04T06:47:10.430Z,0.47
2018-02-04T06:49:37.993Z,0.68
2018-02-04T06:52:05.425Z,1.15
2018-02-04T06:54:33.148Z,1.26
2018-02-04T06:57:00.569Z,1.22
2018-02-04T06:59:28.002Z,1.11
2018-02-04T07:01:55.411Z,1.02
2018-02-04T07:04:22.847Z,0.90
2018-02-04T07:06:50.266Z,0.81
2018-02-04T07:09:17.836Z,0.95
2018-02-04T07:11:45.695Z,0.92
2018-02-04T07:14:14.126Z,0.74
2018-02-04T07:16:41.562Z,0.75
2018-02-04T07:19:11.206Z,0.90
2018-02-04T07:21:38.967Z,0.97
2018-02-04T07:24:06.669Z,1.09
2018-02-04T07:26:34.130Z,1.13
2018-02-04T07:29:01.897Z,1.22
2018-02-04T07:31:29.309Z,1.14
2018-02-04T07:33:57.109Z,1.14
2018-02-04T07:36:25.357Z,1.23
2018-02-04T07:38:52.764Z,1.23
2018-02-04T07:41:20.188Z,1.28
2018-02-04T07:43:47.588Z,1.25
2018-02-04T07:46:15.497Z,1.28
2018-02-04T07:48:42.910Z,1.28
2018-02-04T07:51:10.303Z,1.37
2018-02-04T07:53:37.708Z,1.52
2018-02-04T07:56:05.120Z,1.49
2018-02-04T07:58:32.545Z,1.50
2018-02-04T08:00:59.961Z,1.52
2018-02-04T08:03:27.361Z,1.56
2018-02-04T08:05:54.780Z,1.58
2018-02-04T08:08:22.197Z,1.64
2018-02-04T08:10:49.620Z,1.71
2018-02-04T08:13:17.022Z,1.69
2018-02-04T08:15:44.503Z,1.81
2018-02-04T08:18:11.867Z,1.93
2018-02-04T08:20:39.288Z,1.90
2018-02-04T08:23:06.697Z,2.04
2018-02-04T08:25:34.108Z,2.09
2018-02-04T08:28:01.523Z,2.13
2018-02-04T08:30:28.937Z,2.20
2018-02-04T08:32:56.350Z,2.35
2018-02-04T08:35:23.766Z,2.37
2018-02-04T08:37:51.177Z,2.42
2018-02-04T08:46:24.906Z,2.62
2018-02-04T08:48:52.376Z,2.66
2018-02-04T08:51:19.760Z,2.67
2018-02-04T08:53:47.161Z,2.91
2018-02-04T08:56:14.569Z,3.05
2018-02-04T08:58:41.983Z,2.84
2018-02-04T09:01:09.386Z,2.20
2018-02-04T09:06:35.266Z,2.06
2018-02-04T09:09:02.686Z,2.25
2018-02-04T09:11:30.128Z,2.60
2018-02-04T09:13:57.589Z,2.99
2018-02-04T09:16:24.992Z,2.82
2018-02-04T09:18:52.424Z,2.76
2018-02-04T09:21:20.152Z,2.55
2018-02-04T09:23:47.575Z,2.54
2018-02-04T09:26:15.019Z,2.66
2018-02-04T09:28:42.429Z,2.47
2018-02-04T09:31:10.538Z,2.48
2018-02-04T09:33:37.918Z,2.42
2018-02-04T09:36:05.324Z,2.60
2018-02-04T09:38:33.277Z,2.31
2018-02-04T09:41:02.524Z,2.27
2018-02-04T09:43:29.947Z,2.31
2018-02-04T09:45:57.354Z,2.60
2018-02-04T09:48:25.051Z,2.63
2018-02-04T09:50:52.466Z,2.92
2018-02-04T09:53:19.919Z,3.19
2018-02-04T09:55:47.312Z,2.92
2018-02-04T09:58:14.740Z,3.16
2018-02-04T10:00:42.194Z,3.61
2018-02-04T10:03:09.621Z,3.68
2018-02-04T10:05:37.248Z,3.82
2018-02-04T10:08:11.106Z,3.47
2018-02-04T10:10:39.136Z,2.99
2018-02-04T10:13:06.569Z,3.09
2018-02-04T10:15:35.696Z,3.11
2018-02-04T10:18:03.131Z,3.61
2018-02-04T10:20:30.902Z,3.42
2018-02-04T10:22:58.496Z,3.64
2018-02-04T10:25:25.935Z,3.63
2018-02-04T10:27:53.622Z,3.94
2018-02-04T10:30:21.584Z,4.00
2018-02-04T10:32:49.046Z,3.90
2018-02-04T10:35:16.852Z,3.99
2018-02-04T10:37:45.628Z,3.99
2018-02-04T10:40:13.403Z,3.94
2018-02-04T10:42:40.838Z,3.96
2018-02-04T10:45:08.651Z,3.93
2018-02-04T10:47:36.410Z,3.78
2018-02-04T10:50:03.971Z,3.89
2018-02-04T10:52:32.886Z,4.06
2018-02-04T10:55:00.361Z,4.42
2018-02-04T10:57:27.770Z,4.53
2018-02-04T10:59:55.206Z,4.45
2018-02-04T11:02:23.336Z,4.47
2018-02-04T11:04:50.760Z,4.76
2018-02-04T11:07:18.953Z,4.49
2018-02-04T11:09:46.374Z,4.50
2018-02-04T11:12:13.774Z,4.53
2018-02-04T11:14:41.193Z,4.50
2018-02-04T11:17:08.593Z,4.74
2018-02-04T11:19:36.153Z,4.73
2018-02-04T11:22:04.541Z,4.90
2018-02-04T11:24:31.958Z,5.24
2018-02-04T11:26:59.353Z,5.15
2018-02-04T11:29:26.784Z,5.19
2018-02-04T11:31:54.196Z,4.82
2018-02-04T11:34:21.609Z,4.77
2018-02-04T11:36:49.986Z,4.88
2018-02-04T11:39:17.375Z,4.75
2018-02-04T11:41:44.812Z,4.82
2018-02-04T11:44:12.204Z,4.87
2018-02-04T11:46:39.636Z,4.80
2018-02-04T11:49:07.008Z,4.88
2018-02-04T11:51:34.472Z,4.55
2018-02-04T11:54:01.869Z,4.13
2018-02-04T11:56:29.272Z,3.93
2018-02-04T11:58:56.676Z,3.87
2018-02-04T12:01:24.877Z,3.76
2018-02-04T12:03:52.282Z,3.78
2018-02-04T12:06:19.685Z,3.73
2018-02-04T12:08:47.089Z,3.45
2018-02-04T12:11:14.493Z,3.17
2018-02-04T12:13:41.905Z,3.08
2018-02-04T12:16:09.317Z,2.78
2018-02-04T12:18:37.424Z,2.60
2018-02-04T12:21:04.911Z,2.47
2018-02-04T12:23:32.292Z,2.61
2018-02-04T12:25:59.689Z,2.91
2018-02-04T12:28:27.090Z,3.18
2018-02-04T12:30:54.494Z,3.52
2018-02-04T12:33:21.896Z,3.62
2018-02-04T12:35:49.376Z,3.57
2018-02-04T12:38:17.592Z,3.35
2018-02-04T12:40:44.993Z,3.01
2018-02-04T12:43:12.812Z,3.01
2018-02-04T12:45:40.240Z,2.72
2018-02-04T12:48:07.632Z,2.47
2018-02-04T12:50:35.045Z,2.49
2018-02-04T12:53:02.497Z,2.51
2018-02-04T12:55:29.933Z,2.41
2018-02-04T12:57:57.340Z,2.24
2018-02-04T13:00:24.745Z,2.30
2018-02-04T13:02:52.140Z,2.04
2018-02-04T13:05:19.564Z,2.10
2018-02-04T13:07:46.977Z,2.08
2018-02-04T13:10:14.374Z,2.19
2018-02-04T13:12:41.866Z,2.30
2018-02-04T13:15:09.268Z,2.22
2018-02-04T13:17:36.890Z,2.28
2018-02-04T13:20:04.288Z,2.21
2018-02-04T13:22:31.688Z,2.37
2018-02-04T13:24:59.084Z,2.30
2018-02-04T13:27:27.344Z,2.22
2018-02-04T13:29:54.801Z,2.14
2018-02-04T13:32:22.214Z,2.02
2018-02-04T13:34:49.622Z,1.97
2018-02-04T13:37:17.029Z,2.03
2018-02-04T13:39:44.433Z,2.10
2018-02-04T13:42:11.844Z,2.06
2018-02-04T13:44:39.244Z,2.05
2018-02-04T13:47:06.684Z,1.87
2018-02-04T13:49:34.486Z,1.90
2018-02-04T13:52:01.923Z,1.83
2018-02-04T13:54:30.117Z,1.48
2018-02-04T13:56:58.296Z,1.61
2018-02-04T13:59:25.714Z,1.67
2018-02-04T14:01:53.140Z,1.62
2018-02-04T14:04:20.532Z,1.57
2018-02-04T14:06:48.004Z,1.69
2018-02-04T14:09:15.414Z,1.78
2018-02-04T14:11:42.812Z,1.65
2018-02-04T14:14:10.217Z,1.58
2018-02-04T14:16:37.833Z,1.63
2018-02-04T14:19:05.313Z,1.49
2018-02-04T14:21:32.712Z,1.68
2018-02-04T14:24:00.141Z,1.73
2018-02-04T14:26:27.536Z,1.78
2018-02-04T14:28:55.010Z,1.89
2018-02-04T14:31:22.421Z,1.92
2018-02-04T14:33:49.913Z,1.70
2018-02-04T14:36:17.314Z,1.76
2018-02-04T14:38:44.723Z,1.52
2018-02-04T14:41:12.238Z,1.51
2018-02-04T14:43:39.604Z,1.62
2018-02-04T14:46:07.048Z,1.58
2018-02-04T14:48:34.542Z,1.52
2018-02-04T14:51:01.932Z,1.58
2018-02-04T14:53:30.147Z,1.44
2018-02-04T14:55:57.537Z,1.54
2018-02-04T14:58:25.311Z,1.70
2018-02-04T15:00:52.697Z,1.83
2018-02-04T15:03:20.105Z,1.96
2018-02-04T15:05:47.526Z,1.61
2018-02-04T15:08:15.023Z,1.59
2018-02-04T15:10:42.873Z,1.56
2018-02-04T15:13:10.260Z,1.48
2018-02-04T15:15:37.707Z,1.37
2018-02-04T15:18:05.125Z,1.24
2018-02-04T15:20:32.536Z,1.36
2018-02-04T15:23:00.957Z,1.43
2018-02-04T15:25:29.262Z,1.31
2018-02-04T15:27:56.653Z,1.29
2018-02-04T15:30:24.080Z,1.15
2018-02-04T15:32:51.482Z,1.16
2018-02-04T15:35:18.902Z,1.15
2018-02-04T15:37:46.299Z,1.04
2018-02-04T15:40:13.716Z,1.23
2018-02-04T15:42:41.129Z,1.09
2018-02-04T15:45:08.577Z,0.79
2018-02-04T15:47:36.692Z,0.74
2018-02-04T15:50:05.096Z,0.80
2018-02-04T15:52:32.499Z,0.74
2018-02-04T15:54:59.913Z,0.66
2018-02-04T15:57:29.126Z,0.71
2018-02-04T15:59:56.490Z,0.70
2018-02-04T16:02:23.908Z,0.53
2018-02-04T16:04:51.320Z,0.61
2018-02-04T16:07:18.727Z,0.67
2018-02-04T16:09:46.146Z,0.67
2018-02-04T16:12:13.549Z,0.86
2018-02-04T16:14:40.981Z,0.76
2018-02-04T16:17:08.377Z,0.86
2018-02-04T16:19:35.800Z,0.67
2018-02-04T16:22:04.120Z,0.72
2018-02-04T16:24:31.524Z,0.61
2018-02-04T16:26:59.064Z,0.53
2018-02-04T16:29:26.471Z,0.45
2018-02-04T16:31:53.973Z,0.67
2018-02-04T16:34:21.378Z,0.65
2018-02-04T16:36:48.792Z,0.80
2018-02-04T16:39:16.197Z,0.78
2018-02-04T16:41:43.654Z,0.79
2018-02-04T16:44:11.120Z,0.73
2018-02-04T16:46:38.542Z,0.74
2018-02-04T16:49:06.024Z,0.89
2018-02-04T16:51:33.980Z,0.88
2018-02-04T16:54:01.407Z,0.77
2018-02-04T16:56:31.675Z,0.70
2018-02-04T16:58:59.145Z,0.83
2018-02-04T17:01:26.576Z,1.09
2018-02-04T17:03:53.974Z,0.77
2018-02-04T17:06:21.389Z,0.57
2018-02-04T17:08:48.854Z,0.60
2018-02-04T17:11:16.309Z,0.56
2018-02-04T17:13:44.628Z,0.54
2018-02-04T17:16:12.198Z,0.47
2018-02-04T17:18:39.656Z,0.62
2018-02-04T17:21:07.134Z,0.63
2018-02-04T17:23:35.194Z,0.69
2018-02-04T17:26:02.671Z,0.99
2018-02-04T17:28:30.097Z,1.07
2018-02-04T17:30:57.547Z,1.15
2018-02-04T17:33:24.941Z,1.16
2018-02-04T17:35:52.357Z,1.28
2018-02-04T17:38:19.764Z,1.39
2018-02-04T17:40:47.228Z,1.19
2018-02-04T17:43:14.628Z,1.37
2018-02-04T17:45:42.035Z,1.31
2018-02-04T17:48:09.508Z,1.32
2018-02-04T17:50:36.920Z,0.99
2018-02-04T17:53:04.347Z,0.70
2018-02-04T17:55:31.822Z,0.86
2018-02-04T17:57:59.270Z,0.88
2018-02-04T18:00:26.671Z,0.82
2018-02-04T18:02:54.076Z,0.85
2018-02-04T18:05:22.233Z,0.99
2018-02-04T18:07:49.726Z,0.90
2018-02-04T18:10:17.400Z,0.77
2018-02-04T18:12:44.870Z,0.76
2018-02-04T18:15:12.370Z,0.65
2018-02-04T18:17:39.800Z,0.75
2018-02-04T18:20:07.188Z,0.60
2018-02-04T18:22:34.619Z,0.56
2018-02-04T18:25:02.020Z,0.81
2018-02-04T18:27:29.439Z,0.65
2018-02-04T18:29:56.840Z,0.47
2018-02-04T18:32:24.298Z,0.44
2018-02-04T18:34:51.742Z,0.56
2018-02-04T18:37:19.145Z,0.60
2018-02-04T18:39:47.469Z,0.83
2018-02-04T18:42:14.925Z,0.88
2018-02-04T18:44:42.324Z,0.85
2018-02-04T18:47:09.794Z,0.95
2018-02-04T18:49:37.184Z,1.00
2018-02-04T18:52:04.592Z,1.03
2018-02-04T18:54:32.990Z,1.06
2018-02-04T18:57:00.393Z,1.01
2018-02-04T18:59:27.878Z,0.96
2018-02-04T19:01:55.293Z,0.76
2018-02-04T19:04:22.723Z,0.50
2018-02-04T19:06:50.135Z,0.83
2018-02-04T19:09:17.559Z,0.85
2018-02-04T19:11:45.004Z,0.62
2018-02-04T19:14:12.409Z,0.75
2018-02-04T19:16:39.816Z,0.95
2018-02-04T19:19:07.224Z,1.01
2018-02-04T19:21:34.982Z,1.10
2018-02-04T19:24:02.450Z,0.81
2018-02-04T19:26:29.837Z,0.84
2018-02-04T19:28:57.371Z,0.92
2018-02-04T19:31:24.812Z,0.87
2018-02-04T19:33:52.230Z,0.68
2018-02-04T19:36:19.676Z,1.04
2018-02-04T19:38:47.136Z,1.25
2018-02-04T19:41:14.528Z,1.11
2018-02-04T19:43:41.940Z,1.26
2018-02-04T19:46:09.388Z,0.98
2018-02-04T19:48:36.785Z,0.94
2018-02-04T19:51:04.246Z,1.20
2018-02-04T19:53:31.657Z,0.89
2018-02-04T19:55:59.056Z,0.91
2018-02-04T19:58:26.516Z,1.08
2018-02-04T20:00:53.908Z,1.22
2018-02-04T20:03:21.364Z,1.20
2018-02-04T20:05:48.776Z,1.29
2018-02-04T20:08:16.172Z,1.06
2018-02-04T20:10:43.588Z,0.69
2018-02-04T20:13:11.582Z,0.78
2018-02-04T20:15:39.049Z,1.00
2018-02-04T20:18:06.507Z,0.87
2018-02-04T20:20:33.964Z,0.90
2018-02-04T20:23:01.412Z,0.88
2018-02-04T20:25:28.836Z,1.23
2018-02-04T20:27:56.237Z,1.42
2018-02-04T20:30:23.694Z,1.18
2018-02-04T20:33:06.500Z,1.15
2018-02-04T20:35:44.797Z,1.41
2018-02-04T20:38:12.457Z,1.58
2018-02-04T20:40:39.923Z,1.55
2018-02-04T20:43:07.367Z,1.23
2018-02-04T20:45:34.820Z,1.05
2018-02-04T20:48:02.227Z,1.29
2018-02-04T20:50:29.684Z,1.11
2018-02-04T20:52:57.090Z,1.06
2018-02-04T20:55:24.539Z,0.91
2018-02-04T20:57:51.913Z,1.25
2018-02-04T21:00:19.384Z,1.35
2018-02-04T21:02:46.781Z,0.98
2018-02-04T21:05:14.192Z,1.04
2018-02-04T21:07:41.596Z,1.41
2018-02-04T21:10:09.005Z,1.36
2018-02-04T21:12:36.473Z,1.39
2018-02-04T21:15:03.879Z,1.54
2018-02-04T21:17:31.322Z,0.98
2018-02-04T21:19:58.728Z,0.88
2018-02-04T21:22:26.134Z,1.31
2018-02-04T21:24:53.596Z,1.18
2018-02-04T21:27:21.001Z,1.03
2018-02-04T21:29:48.404Z,1.13
2018-02-04T21:32:15.868Z,1.16
2018-02-04T21:34:43.265Z,1.19
2018-02-04T21:37:10.676Z,0.93
2018-02-04T21:39:38.125Z,0.79
2018-02-04T21:42:05.537Z,0.87
2018-02-04T21:44:32.950Z,0.95
2018-02-04T21:47:00.410Z,1.18
2018-02-04T21:49:27.860Z,1.45
2018-02-04T21:51:55.257Z,1.41
2018-02-04T21:54:23.270Z,1.44
2018-02-04T21:56:50.714Z,1.16
2018-02-04T22:02:41.819Z,0.80
2018-02-04T22:05:09.217Z,0.88
2018-02-04T22:07:36.640Z,0.72
2018-02-04T22:10:04.059Z,0.82
2018-02-04T22:12:31.465Z,0.85
2018-02-04T22:14:58.876Z,0.72
2018-02-04T22:17:26.288Z,0.81
2018-02-04T22:19:53.696Z,0.75
2018-02-04T22:22:21.108Z,0.89
2018-02-04T22:24:48.525Z,1.14
2018-02-04T22:27:15.937Z,1.22
2018-02-04T22:29:43.347Z,1.10
2018-02-04T22:32:10.772Z,0.99
2018-02-04T22:34:38.192Z,1.17
2018-02-04T22:37:05.608Z,1.13
2018-02-04T22:39:33.323Z,1.24
2018-02-04T22:42:00.740Z,1.05
2018-02-04T22:44:28.148Z,1.09
2018-02-04T22:46:55.569Z,1.05
2018-02-04T22:49:23.348Z,0.92
2018-02-04T22:51:50.769Z,0.92
2018-02-04T22:54:19.134Z,1.13
2018-02-04T22:56:46.503Z,1.03
2018-02-04T22:59:13.913Z,0.88
2018-02-04T23:01:41.328Z,0.96
2018-02-04T23:04:08.734Z,0.88
2018-02-04T23:06:36.148Z,0.68
2018-02-04T23:09:03.557Z,0.75
2018-02-04T23:11:30.973Z,0.94
2018-02-04T23:13:58.384Z,0.87
2018-02-04T23:16:25.788Z,1.03
2018-02-04T23:18:53.214Z,1.11
2018-02-04T23:21:20.613Z,1.10
2018-02-04T23:23:48.028Z,0.83
2018-02-04T23:26:15.436Z,0.81
2018-02-04T23:28:42.849Z,0.78
2018-02-04T23:31:10.257Z,1.12
2018-02-04T23:33:37.671Z,1.15
2018-02-04T23:36:05.088Z,1.27
2018-02-04T23:38:32.509Z,1.06
2018-02-04T23:40:59.925Z,0.93
2018-02-04T23:43:27.337Z,0.86
2018-02-04T23:45:54.786Z,1.06
2018-02-04T23:48:22.163Z,0.85
2018-02-04T23:50:49.592Z,0.83
2018-02-04T23:53:17.009Z,0.87
2018-02-04T23:55:44.424Z,0.76
2018-02-04T23:58:11.841Z,0.81
